createdAt,value
2023-06-05T00:01:52.022Z,17.24
2023-06-05T00:04:54.692Z,17.19
2023-06-05T00:07:57.293Z,17.18
2023-06-05T00:11:01.261Z,17.12
2023-06-05T00:14:03.920Z,17.10
2023-06-05T00:17:08.243Z,17.04
2023-06-05T00:20:11.514Z,17.03
2023-06-05T00:23:14.895Z,17.00
2023-06-05T00:26:19.133Z,17.00
2023-06-05T00:29:21.770Z,16.94
2023-06-05T00:32:24.434Z,16.91
2023-06-05T00:35:26.997Z,16.78
2023-06-05T00:38:29.696Z,16.75
2023-06-05T00:41:33.842Z,16.72
2023-06-05T00:44:36.665Z,16.71
2023-06-05T00:47:39.800Z,16.78
2023-06-05T00:50:42.637Z,16.69
2023-06-05T00:53:46.985Z,16.58
2023-06-05T00:56:53.538Z,16.54
2023-06-05T00:59:56.466Z,16.48
2023-06-05T01:02:59.637Z,16.49
2023-06-05T01:06:04.699Z,16.42
2023-06-05T01:09:07.437Z,16.25
2023-06-05T01:12:17.075Z,16.24
2023-06-05T01:15:20.132Z,16.25
2023-06-05T01:18:24.363Z,16.19
2023-06-05T01:21:27.305Z,16.17
2023-06-05T01:24:31.286Z,16.13
2023-06-05T01:27:42.085Z,16.14
2023-06-05T01:30:54.123Z,16.09
2023-06-05T01:34:03.043Z,16.04
2023-06-05T01:37:09.461Z,15.97
2023-06-05T01:40:16.434Z,15.92
2023-06-05T01:43:19.725Z,15.96
2023-06-05T01:46:24.187Z,15.94
2023-06-05T01:49:26.878Z,15.85
2023-06-05T01:52:29.451Z,15.80
2023-06-05T01:55:33.699Z,15.71
2023-06-05T01:58:36.608Z,15.51
2023-06-05T02:01:39.706Z,15.43
2023-06-05T02:04:42.509Z,15.50
2023-06-05T02:07:48.571Z,15.46
2023-06-05T02:10:53.819Z,15.44
2023-06-05T02:13:56.490Z,15.38
2023-06-05T02:16:59.379Z,15.40
2023-06-05T02:20:02.179Z,15.38
2023-06-05T02:23:06.154Z,15.38
2023-06-05T02:26:10.095Z,15.34
2023-06-05T02:29:13.499Z,15.20
2023-06-05T02:32:16.124Z,15.12
2023-06-05T02:35:18.914Z,15.06
2023-06-05T02:38:21.589Z,15.05
2023-06-05T02:41:25.757Z,15.02
2023-06-05T02:44:28.411Z,15.06
2023-06-05T02:47:31.220Z,15.03
2023-06-05T02:50:33.725Z,15.02
2023-06-05T02:53:36.603Z,15.02
2023-06-05T02:56:41.523Z,14.97
2023-06-05T02:59:44.219Z,14.93
2023-06-05T03:02:49.866Z,14.94
2023-06-05T03:05:52.949Z,14.91
2023-06-05T03:08:56.958Z,14.85
2023-06-05T03:12:01.342Z,14.77
2023-06-05T03:15:04.754Z,14.68
2023-06-05T03:18:07.532Z,14.66
2023-06-05T03:21:11.436Z,14.68
2023-06-05T03:24:17.090Z,14.71
2023-06-05T03:27:21.269Z,14.70
2023-06-05T03:30:24.037Z,14.66
2023-06-05T03:33:26.718Z,14.68
2023-06-05T03:36:30.356Z,14.65
2023-06-05T03:39:33.246Z,14.62
2023-06-05T03:42:37.222Z,14.62
2023-06-05T03:45:40.948Z,14.68
2023-06-05T03:48:44.632Z,14.73
2023-06-05T03:51:47.312Z,14.80
2023-06-05T03:54:54.411Z,14.88
2023-06-05T03:57:58.415Z,14.93
2023-06-05T04:01:01.168Z,15.01
2023-06-05T04:04:03.965Z,15.07
2023-06-05T04:07:07.675Z,15.11
2023-06-05T04:10:11.386Z,15.11
2023-06-05T04:13:15.339Z,15.12
2023-06-05T04:16:18.014Z,15.12
2023-06-05T04:19:21.509Z,15.15
2023-06-05T04:22:24.082Z,15.25
2023-06-05T04:25:30.418Z,15.27
2023-06-05T04:28:35.194Z,15.34
2023-06-05T04:31:42.249Z,15.43
2023-06-05T04:34:45.170Z,15.62
2023-06-05T04:37:47.854Z,15.68
2023-06-05T04:40:51.596Z,15.71
2023-06-05T04:43:56.001Z,15.80
2023-06-05T04:46:58.693Z,15.89
2023-06-05T04:50:04.440Z,15.95
2023-06-05T04:53:07.573Z,16.05
2023-06-05T04:56:11.411Z,16.14
2023-06-05T04:59:15.972Z,16.26
2023-06-05T05:02:18.959Z,16.33
2023-06-05T05:05:21.999Z,16.47
2023-06-05T05:08:24.722Z,16.62
2023-06-05T05:11:27.993Z,16.75
2023-06-05T05:14:32.385Z,16.88
2023-06-05T05:17:35.783Z,16.97
2023-06-05T05:20:39.745Z,17.11
2023-06-05T05:23:42.447Z,17.30
2023-06-05T05:26:45.328Z,17.42
2023-06-05T05:29:49.333Z,17.53
2023-06-05T05:32:52.089Z,17.66
2023-06-05T05:35:54.965Z,17.88
2023-06-05T05:38:57.622Z,18.07
2023-06-05T05:42:01.801Z,18.22
2023-06-05T05:45:06.965Z,18.35
2023-06-05T05:48:09.860Z,18.35
2023-06-05T05:51:12.786Z,18.52
2023-06-05T05:54:15.850Z,18.68
2023-06-05T05:57:18.426Z,18.78
2023-06-05T06:00:22.944Z,18.86
2023-06-05T06:03:25.724Z,18.95
2023-06-05T06:06:28.745Z,19.14
2023-06-05T06:09:31.778Z,19.31
2023-06-05T06:12:34.705Z,19.39
2023-06-05T06:15:40.059Z,19.58
2023-06-05T06:18:43.046Z,19.72
2023-06-05T06:21:45.785Z,19.74
2023-06-05T06:24:49.780Z,19.74
2023-06-05T06:27:54.511Z,19.89
2023-06-05T06:30:58.709Z,20.03
2023-06-05T06:34:01.836Z,20.07
2023-06-05T06:37:04.671Z,20.23
2023-06-05T06:40:10.244Z,20.34
2023-06-05T06:43:13.349Z,20.53
2023-06-05T06:46:17.585Z,20.53
2023-06-05T06:49:20.317Z,20.68
2023-06-05T06:52:25.699Z,20.77
2023-06-05T06:55:29.129Z,20.94
2023-06-05T06:58:32.348Z,21.06
2023-06-05T07:01:37.081Z,21.18
2023-06-05T07:04:42.237Z,21.36
2023-06-05T07:07:45.094Z,21.41
2023-06-05T07:10:47.835Z,21.54
2023-06-05T07:13:50.521Z,21.62
2023-06-05T07:16:57.965Z,21.77
2023-06-05T07:20:01.494Z,21.89
2023-06-05T07:23:04.364Z,22.09
2023-06-05T07:26:07.100Z,22.18
2023-06-05T07:29:10.152Z,22.17
2023-06-05T07:32:14.158Z,22.30
2023-06-05T07:35:17.613Z,22.43
2023-06-05T07:38:20.352Z,22.58
2023-06-05T07:41:23.094Z,22.62
2023-06-05T07:44:25.966Z,22.72
2023-06-05T07:47:30.673Z,22.88
2023-06-05T07:50:33.511Z,22.98
2023-06-05T07:53:36.805Z,22.95
2023-06-05T07:56:40.302Z,23.09
2023-06-05T07:59:43.491Z,23.33
2023-06-05T08:02:49.782Z,23.38
2023-06-05T08:05:52.822Z,23.70
2023-06-05T08:08:55.427Z,23.84
2023-06-05T08:11:58.330Z,23.96
2023-06-05T08:15:00.959Z,24.06
2023-06-05T08:18:05.746Z,24.13
2023-06-05T08:21:08.595Z,24.34
2023-06-05T08:24:11.636Z,24.44
2023-06-05T08:27:14.359Z,24.31
2023-06-05T08:30:17.297Z,24.07
2023-06-05T08:33:21.856Z,24.55
2023-06-05T08:36:25.160Z,24.72
2023-06-05T08:39:32.955Z,24.65
2023-06-05T08:42:36.114Z,24.92
2023-06-05T08:45:38.887Z,24.75
2023-06-05T08:48:45.825Z,24.87
2023-06-05T08:51:52.440Z,25.01
2023-06-05T08:54:55.535Z,25.25
2023-06-05T08:57:57.973Z,25.25
2023-06-05T09:01:02.459Z,25.16
2023-06-05T09:04:06.884Z,25.19
2023-06-05T09:07:09.724Z,25.40
2023-06-05T09:10:24.303Z,25.59
2023-06-05T09:13:26.834Z,25.67
2023-06-05T09:16:36.939Z,25.88
2023-06-05T09:19:42.244Z,25.75
2023-06-05T09:22:45.030Z,25.57
2023-06-05T09:25:49.282Z,25.74
2023-06-05T09:28:56.051Z,26.01
2023-06-05T09:32:00.298Z,26.14
2023-06-05T09:35:06.741Z,26.00
2023-06-05T09:38:28.034Z,26.02
2023-06-05T09:41:30.580Z,26.12
2023-06-05T09:44:36.221Z,26.32
2023-06-05T09:47:53.323Z,26.69
2023-06-05T09:51:10.296Z,26.79
2023-06-05T09:54:13.404Z,26.90
2023-06-05T09:57:16.263Z,27.24
2023-06-05T10:00:21.720Z,26.99
2023-06-05T10:03:24.638Z,26.95
2023-06-05T10:06:29.823Z,27.47
2023-06-05T10:09:33.600Z,28.02
2023-06-05T10:12:36.779Z,27.64
2023-06-05T10:15:43.530Z,27.77
2023-06-05T10:18:48.374Z,28.05
2023-06-05T10:21:53.054Z,28.32
2023-06-05T10:24:59.289Z,28.25
2023-06-05T10:28:17.545Z,28.37
2023-06-05T10:31:27.348Z,28.58
2023-06-05T10:34:38.281Z,28.59
2023-06-05T10:37:50.135Z,28.45
2023-06-05T10:40:55.373Z,28.54
2023-06-05T10:43:58.023Z,29.08
2023-06-05T10:47:00.776Z,29.43
2023-06-05T10:50:22.159Z,29.53
2023-06-05T10:53:47.111Z,29.55
2023-06-05T10:57:02.269Z,29.08
2023-06-05T11:00:12.079Z,28.85
2023-06-05T11:03:14.848Z,28.74
2023-06-05T11:06:17.511Z,28.62
2023-06-05T11:13:04.896Z,28.42
2023-06-05T11:16:08.061Z,28.21
2023-06-05T11:19:39.461Z,28.52
2023-06-05T11:23:10.028Z,28.75
2023-06-05T11:26:42.189Z,29.22
2023-06-05T11:29:45.697Z,29.37
2023-06-05T11:32:49.473Z,29.38
2023-06-05T11:35:53.664Z,29.20
2023-06-05T11:38:57.222Z,29.11
2023-06-05T11:42:01.317Z,28.80
2023-06-05T11:45:04.500Z,28.94
2023-06-05T11:48:08.756Z,29.50
2023-06-05T11:51:11.525Z,29.99
2023-06-05T11:54:17.256Z,30.37
2023-06-05T11:57:36.621Z,30.49
2023-06-05T12:00:45.932Z,30.41
2023-06-05T12:03:48.726Z,30.81
2023-06-05T12:06:52.718Z,31.12
2023-06-05T12:09:56.110Z,31.45
2023-06-05T12:13:00.043Z,31.28
2023-06-05T12:16:02.657Z,31.09
2023-06-05T12:19:16.024Z,29.67
2023-06-05T12:22:20.459Z,29.27
2023-06-05T12:25:24.352Z,29.81
2023-06-05T12:28:28.828Z,30.50
2023-06-05T12:31:40.857Z,31.19
2023-06-05T12:37:52.371Z,31.71
2023-06-05T12:41:04.573Z,31.72
2023-06-05T12:44:09.293Z,30.98
2023-06-05T12:47:11.980Z,31.64
2023-06-05T12:50:14.705Z,31.79
2023-06-05T12:53:17.250Z,32.77
2023-06-05T12:56:19.762Z,33.01
2023-06-05T12:59:23.808Z,33.60
2023-06-05T13:02:26.957Z,33.44
2023-06-05T13:05:29.624Z,33.86
2023-06-05T13:08:32.509Z,33.42
2023-06-05T13:11:35.193Z,33.64
2023-06-05T13:14:39.358Z,33.47
2023-06-05T13:17:42.100Z,32.41
2023-06-05T13:20:44.899Z,32.08
2023-06-05T13:23:47.701Z,32.88
2023-06-05T13:26:50.462Z,34.07
2023-06-05T13:29:54.718Z,34.58
2023-06-05T13:32:57.886Z,33.97
2023-06-05T13:36:01.742Z,34.87
2023-06-05T13:39:05.150Z,35.72
2023-06-05T13:42:08.316Z,36.70
2023-06-05T13:45:12.628Z,37.04
2023-06-05T13:48:15.420Z,35.58
2023-06-05T13:51:18.180Z,34.36
2023-06-05T13:54:20.901Z,40.25
2023-06-05T13:57:23.565Z,44.76
2023-06-05T14:00:27.549Z,43.57
2023-06-05T14:03:30.524Z,38.50
2023-06-05T14:06:34.984Z,39.31
2023-06-05T14:09:37.608Z,46.84
2023-06-05T14:12:40.475Z,50.66
2023-06-05T14:15:44.614Z,53.56
2023-06-05T14:18:47.273Z,53.97
2023-06-05T14:21:50.719Z,54.48
2023-06-05T14:24:53.492Z,52.88
2023-06-05T14:27:56.798Z,50.53
2023-06-05T14:31:01.081Z,46.42
2023-06-05T14:34:04.118Z,41.06
2023-06-05T14:37:07.094Z,40.46
2023-06-05T14:40:10.576Z,39.49
2023-06-05T14:43:13.327Z,42.79
2023-06-05T14:46:18.993Z,46.20
2023-06-05T14:49:22.010Z,50.20
2023-06-05T14:52:25.016Z,48.38
2023-06-05T14:55:27.822Z,51.00
2023-06-05T14:58:31.011Z,53.94
2023-06-05T15:01:35.214Z,54.53
2023-06-05T15:04:37.944Z,55.09
2023-06-05T15:07:42.231Z,54.36
2023-06-05T15:10:44.967Z,52.43
2023-06-05T15:13:47.716Z,51.94
2023-06-05T15:16:51.906Z,54.15
2023-06-05T15:19:54.530Z,55.78
2023-06-05T15:23:14.928Z,55.90
2023-06-05T15:26:18.647Z,56.51
2023-06-05T15:29:21.574Z,54.67
2023-06-05T15:32:25.719Z,52.23
2023-06-05T15:35:28.909Z,53.41
2023-06-05T15:38:31.712Z,51.81
2023-06-05T15:41:34.306Z,46.43
2023-06-05T15:44:39.677Z,45.50
2023-06-05T15:47:43.799Z,43.66
2023-06-05T15:50:46.672Z,44.05
2023-06-05T15:53:56.637Z,45.90
2023-06-05T15:57:08.784Z,48.30
2023-06-05T16:00:12.308Z,48.92
2023-06-05T16:03:18.504Z,48.09
2023-06-05T16:06:22.258Z,41.66
2023-06-05T16:09:24.870Z,44.76
2023-06-05T16:12:27.544Z,48.43
2023-06-05T16:15:30.164Z,49.80
2023-06-05T16:18:34.143Z,50.66
2023-06-05T16:21:38.720Z,47.91
2023-06-05T16:24:41.436Z,47.84
2023-06-05T16:27:44.027Z,48.68
2023-06-05T16:30:46.619Z,49.84
2023-06-05T16:33:50.637Z,49.93
2023-06-05T16:36:53.500Z,48.06
2023-06-05T16:39:56.270Z,50.21
2023-06-05T16:42:58.917Z,50.50
2023-06-05T16:46:01.567Z,51.76
2023-06-05T16:49:05.622Z,52.12
2023-06-05T16:52:08.154Z,51.86
2023-06-05T16:55:11.001Z,50.53
2023-06-05T16:58:13.639Z,47.81
2023-06-05T17:01:18.958Z,48.96
2023-06-05T17:04:23.171Z,50.25
2023-06-05T17:07:26.422Z,48.60
2023-06-05T17:10:29.952Z,47.24
2023-06-05T17:13:32.594Z,48.42
2023-06-05T17:16:36.671Z,48.00
2023-06-05T17:19:40.623Z,44.64
2023-06-05T17:22:43.209Z,39.88
2023-06-05T17:25:46.026Z,36.89
2023-06-05T17:28:48.556Z,34.72
2023-06-05T17:31:53.974Z,33.80
2023-06-05T17:34:59.422Z,33.07
2023-06-05T17:38:02.140Z,32.18
2023-06-05T17:41:05.250Z,31.30
2023-06-05T17:44:08.028Z,31.07
2023-06-05T17:47:11.026Z,30.44
2023-06-05T17:50:15.160Z,30.08
2023-06-05T17:53:22.560Z,29.87
2023-06-05T17:56:25.170Z,29.72
2023-06-05T17:59:28.359Z,29.30
2023-06-05T18:02:31.312Z,29.04
2023-06-05T18:05:35.675Z,28.89
2023-06-05T18:08:38.894Z,28.58
2023-06-05T18:11:43.968Z,28.29
2023-06-05T18:14:46.719Z,28.10
2023-06-05T18:17:49.183Z,28.01
2023-06-05T18:20:53.320Z,27.91
2023-06-05T18:23:57.103Z,27.66
2023-06-05T18:26:59.753Z,27.50
2023-06-05T18:30:02.287Z,27.45
2023-06-05T18:33:04.979Z,27.24
2023-06-05T18:36:08.959Z,27.05
2023-06-05T18:39:11.821Z,26.91
2023-06-05T18:42:14.476Z,26.86
2023-06-05T18:45:16.954Z,26.72
2023-06-05T18:48:19.569Z,26.59
2023-06-05T18:51:25.223Z,26.46
2023-06-05T18:54:28.051Z,26.28
2023-06-05T18:57:30.931Z,26.17
2023-06-05T19:00:33.591Z,25.97
2023-06-05T19:03:36.416Z,25.87
2023-06-05T19:06:41.371Z,25.69
2023-06-05T19:09:44.060Z,25.57
2023-06-05T19:12:48.134Z,25.41
2023-06-05T19:15:52.242Z,25.31
2023-06-05T19:18:55.639Z,25.26
2023-06-05T19:21:59.670Z,25.31
2023-06-05T19:25:02.434Z,25.38
2023-06-05T19:28:05.097Z,25.39
2023-06-05T19:31:08.021Z,25.37
2023-06-05T19:34:11.113Z,25.36
2023-06-05T19:37:15.223Z,25.39
2023-06-05T19:40:17.894Z,25.39
2023-06-05T19:43:20.658Z,25.47
2023-06-05T19:46:23.644Z,25.52
2023-06-05T19:49:26.367Z,25.48
2023-06-05T19:52:31.728Z,25.45
2023-06-05T19:55:34.478Z,25.44
2023-06-05T19:58:37.189Z,25.41
2023-06-05T20:01:39.837Z,25.29
2023-06-05T20:04:42.535Z,25.08
2023-06-05T20:07:47.861Z,24.97
2023-06-05T20:10:51.784Z,24.73
2023-06-05T20:13:54.497Z,24.57
2023-06-05T20:16:57.439Z,24.36
2023-06-05T20:19:59.914Z,23.91
2023-06-05T20:23:04.177Z,23.61
2023-06-05T20:26:10.799Z,23.40
2023-06-05T20:29:16.630Z,23.23
2023-06-05T20:32:19.620Z,23.01
2023-06-05T20:35:22.573Z,23.00
2023-06-05T20:38:26.633Z,22.95
2023-06-05T20:41:29.474Z,22.87
2023-06-05T20:44:39.684Z,22.86
2023-06-05T20:47:42.644Z,22.90
2023-06-05T20:50:50.846Z,22.91
2023-06-05T20:53:55.090Z,22.82
2023-06-05T20:56:59.091Z,22.84
2023-06-05T21:00:02.535Z,22.75
2023-06-05T21:03:05.965Z,22.63
2023-06-05T21:06:09.095Z,22.60
2023-06-05T21:09:14.903Z,22.54
2023-06-05T21:12:17.566Z,22.32
2023-06-05T21:15:20.337Z,22.14
2023-06-05T21:18:23.094Z,22.09
2023-06-05T21:21:25.746Z,21.92
2023-06-05T21:24:29.938Z,21.71
2023-06-05T21:27:32.605Z,21.61
2023-06-05T21:30:35.204Z,21.47
2023-06-05T21:33:38.572Z,21.35
2023-06-05T21:36:41.355Z,21.33
2023-06-05T21:39:45.913Z,21.24
2023-06-05T21:42:48.650Z,21.18
2023-06-05T21:45:51.365Z,21.04
2023-06-05T21:48:54.158Z,20.93
2023-06-05T21:51:56.686Z,20.79
2023-06-05T21:55:00.844Z,20.70
2023-06-05T21:58:03.465Z,20.69
2023-06-05T22:01:06.352Z,20.58
2023-06-05T22:04:09.094Z,20.58
2023-06-05T22:07:12.698Z,20.49
2023-06-05T22:10:16.623Z,20.40
2023-06-05T22:13:19.358Z,20.36
2023-06-05T22:16:22.273Z,20.29
2023-06-05T22:19:25.111Z,20.32
2023-06-05T22:22:27.792Z,20.28
2023-06-05T22:25:43.373Z,20.14
2023-06-05T22:28:53.360Z,20.14
2023-06-05T22:31:56.202Z,20.07
2023-06-05T22:34:59.053Z,19.91
2023-06-05T22:38:01.625Z,19.75
2023-06-05T22:41:06.456Z,19.59
2023-06-05T22:44:08.994Z,19.51
2023-06-05T22:47:12.296Z,19.53
2023-06-05T22:50:15.169Z,19.49
2023-06-05T22:53:17.730Z,19.41
2023-06-05T22:56:22.442Z,19.36
2023-06-05T22:59:25.205Z,19.36
2023-06-05T23:02:28.772Z,19.33
2023-06-05T23:05:31.921Z,19.35
2023-06-05T23:08:34.741Z,19.36
2023-06-05T23:11:38.730Z,19.30
2023-06-05T23:14:42.238Z,19.22
2023-06-05T23:17:44.861Z,19.16
2023-06-05T23:20:47.579Z,19.15
2023-06-05T23:23:50.227Z,19.10
2023-06-05T23:26:54.345Z,19.04
2023-06-05T23:29:59.522Z,18.92
2023-06-05T23:33:02.945Z,18.75
2023-06-05T23:36:06.309Z,18.69
2023-06-05T23:39:08.742Z,18.64
2023-06-05T23:42:12.682Z,18.62
2023-06-05T23:45:16.128Z,18.57
2023-06-05T23:48:18.971Z,18.42
2023-06-05T23:51:21.851Z,18.42
2023-06-05T23:54:24.529Z,18.39
2023-06-05T23:57:28.752Z,18.30
